sensor_id;sensor_type;location;lat;lon;timestamp;pressure;altitude;pressure_sealevel;temperature;humidity
7180;BME280;3631;42.152;24.756;2023-04-30T00:00:35;148922.31;;;15.31;76.52
7180;BME280;3631;42.152;24.756;2023-04-30T00:03:37;148929.91;;;15.34;76.78
7180;BME280;3631;42.152;24.756;2023-04-30T00:06:58;148932.44;;;15.35;76.56
7180;BME280;3631;42.152;24.756;2023-04-30T00:09:44;148941.25;;;15.38;76.60
7180;BME280;3631;42.152;24.756;2023-04-30T00:12:51;148933.66;;;15.35;76.31
7180;BME280;3631;42.152;24.756;2023-04-30T00:15:53;148955.16;;;15.44;76.09
7180;BME280;3631;42.152;24.756;2023-04-30T00:18:42;148933.66;;;15.35;76.13
7180;BME280;3631;42.152;24.756;2023-04-30T00:21:31;148939.97;;;15.38;76.68
7180;BME280;3631;42.152;24.756;2023-04-30T00:24:31;148951.34;;;15.42;75.85
7180;BME280;3631;42.152;24.756;2023-04-30T00:27:25;148966.47;;;15.48;75.50
7180;BME280;3631;42.152;24.756;2023-04-30T00:34:00;148953.88;;;15.43;75.58
7180;BME280;3631;42.152;24.756;2023-04-30T00:37:03;148924.84;;;15.32;76.55
7180;BME280;3631;42.152;24.756;2023-04-30T00:40:00;148895.84;;;15.20;77.79
7180;BME280;3631;42.152;24.756;2023-04-30T00:42:55;148893.31;;;15.19;77.67
7180;BME280;3631;42.152;24.756;2023-04-30T00:45:55;148912.22;;;15.26;76.85
7180;BME280;3631;42.152;24.756;2023-04-30T00:49:02;148934.91;;;15.36;77.05
7180;BME280;3631;42.152;24.756;2023-04-30T00:52:02;148932.44;;;15.35;76.82
7180;BME280;3631;42.152;24.756;2023-04-30T00:54:55;148947.56;;;15.41;77.61
7180;BME280;3631;42.152;24.756;2023-04-30T00:58:02;148928.66;;;15.33;78.52
7180;BME280;3631;42.152;24.756;2023-04-30T01:00:51;148918.53;;;15.29;78.80
7180;BME280;3631;42.152;24.756;2023-04-30T01:03:43;148958.94;;;15.45;75.46
7180;BME280;3631;42.152;24.756;2023-04-30T01:06:54;148957.69;;;15.45;74.12
7180;BME280;3631;42.152;24.756;2023-04-30T01:09:54;148953.88;;;15.43;74.39
7180;BME280;3631;42.152;24.756;2023-04-30T01:12:52;148950.09;;;15.42;75.16
7180;BME280;3631;42.152;24.756;2023-04-30T01:15:53;148974.06;;;15.51;72.17
7180;BME280;3631;42.152;24.756;2023-04-30T01:18:51;148977.88;;;15.53;70.64
7180;BME280;3631;42.152;24.756;2023-04-30T01:21:55;148942.50;;;15.39;70.96
7180;BME280;3631;42.152;24.756;2023-04-30T01:25:29;148958.94;;;15.45;67.65
7180;BME280;3631;42.152;24.756;2023-04-30T01:28:51;148929.91;;;15.34;68.20
7180;BME280;3631;42.152;24.756;2023-04-30T01:31:53;148921.06;;;15.30;66.69
7180;BME280;3631;42.152;24.756;2023-04-30T01:35:32;148903.41;;;15.23;66.08
7180;BME280;3631;42.152;24.756;2023-04-30T01:38:54;148864.28;;;15.07;64.50
7180;BME280;3631;42.152;24.756;2023-04-30T01:41:56;148866.81;;;15.08;63.46
7180;BME280;3631;42.152;24.756;2023-04-30T01:48:44;148816.34;;;14.88;63.45
7180;BME280;3631;42.152;24.756;2023-04-30T01:52:02;148813.81;;;14.87;61.51
7180;BME280;3631;42.152;24.756;2023-04-30T01:54:50;148788.59;;;14.77;61.90
7180;BME280;3631;42.152;24.756;2023-04-30T01:57:59;148781.03;;;14.74;62.76
7180;BME280;3631;42.152;24.756;2023-04-30T02:00:51;148803.72;;;14.83;62.31
7180;BME280;3631;42.152;24.756;2023-04-30T02:03:52;148779.75;;;14.73;62.95
7180;BME280;3631;42.152;24.756;2023-04-30T02:06:47;148754.53;;;14.63;63.25
7180;BME280;3631;42.152;24.756;2023-04-30T02:09:38;148763.38;;;14.67;63.09
7180;BME280;3631;42.152;24.756;2023-04-30T02:12:47;148762.13;;;14.66;63.02
7180;BME280;3631;42.152;24.756;2023-04-30T02:15:45;148749.47;;;14.61;63.98
7180;BME280;3631;42.152;24.756;2023-04-30T02:18:47;148754.53;;;14.63;64.27
7180;BME280;3631;42.152;24.756;2023-04-30T02:21:43;148739.38;;;14.57;64.23
7180;BME280;3631;42.152;24.756;2023-04-30T02:24:42;148770.91;;;14.70;64.36
7180;BME280;3631;42.152;24.756;2023-04-30T02:27:50;148767.13;;;14.68;64.78
7180;BME280;3631;42.152;24.756;2023-04-30T02:30:57;148763.38;;;14.67;65.26
7180;BME280;3631;42.152;24.756;2023-04-30T02:34:11;148781.03;;;14.74;63.67
7180;BME280;3631;42.152;24.756;2023-04-30T02:37:26;148763.38;;;14.67;64.42
7180;BME280;3631;42.152;24.756;2023-04-30T02:40:24;148786.06;;;14.76;63.89
7180;BME280;3631;42.152;24.756;2023-04-30T02:43:18;148782.28;;;14.74;64.76
7180;BME280;3631;42.152;24.756;2023-04-30T02:46:16;148791.13;;;14.78;64.50
7180;BME280;3631;42.152;24.756;2023-04-30T02:49:16;148802.44;;;14.82;64.59
7180;BME280;3631;42.152;24.756;2023-04-30T02:55:31;148821.34;;;14.90;64.27
7180;BME280;3631;42.152;24.756;2023-04-30T02:58:44;148820.16;;;14.89;62.93
7180;BME280;3631;42.152;24.756;2023-04-30T03:01:46;148801.19;;;14.82;62.97
7180;BME280;3631;42.152;24.756;2023-04-30T03:05:04;148799.94;;;14.81;63.01
7180;BME280;3631;42.152;24.756;2023-04-30T03:07:58;148786.06;;;14.76;63.77
7180;BME280;3631;42.152;24.756;2023-04-30T03:11:05;148782.28;;;14.74;64.27
7180;BME280;3631;42.152;24.756;2023-04-30T03:13:57;148778.50;;;14.73;65.51
7180;BME280;3631;42.152;24.756;2023-04-30T03:16:52;148778.50;;;14.73;66.50
7180;BME280;3631;42.152;24.756;2023-04-30T03:19:56;148726.78;;;14.52;67.94
7180;BME280;3631;42.152;24.756;2023-04-30T03:22:59;148700.31;;;14.41;69.65
7180;BME280;3631;42.152;24.756;2023-04-30T03:25:48;148677.56;;;14.32;72.73
7180;BME280;3631;42.152;24.756;2023-04-30T03:32:03;148657.34;;;14.24;77.40
7180;BME280;3631;42.152;24.756;2023-04-30T03:35:02;148662.41;;;14.26;78.82
7180;BME280;3631;42.152;24.756;2023-04-30T03:37:40;148644.78;;;14.19;82.17
7180;BME280;3631;42.152;24.756;2023-04-30T03:40:28;148609.47;;;14.05;84.00
7180;BME280;3631;42.152;24.756;2023-04-30T03:43:16;148620.81;;;14.09;85.36
7180;BME280;3631;42.152;24.756;2023-04-30T03:46:10;148617.03;;;14.08;89.02
7180;BME280;3631;42.152;24.756;2023-04-30T03:48:52;148622.09;;;14.10;90.75
7180;BME280;3631;42.152;24.756;2023-04-30T03:51:51;148617.03;;;14.08;91.37
7180;BME280;3631;42.152;24.756;2023-04-30T03:54:53;148628.34;;;14.12;91.32
7180;BME280;3631;42.152;24.756;2023-04-30T03:57:45;148629.63;;;14.13;90.60
7180;BME280;3631;42.152;24.756;2023-04-30T04:00:43;148648.56;;;14.21;91.12
7180;BME280;3631;42.152;24.756;2023-04-30T04:03:29;148624.56;;;14.11;93.19
7180;BME280;3631;42.152;24.756;2023-04-30T04:06:22;148647.31;;;14.20;93.78
7180;BME280;3631;42.152;24.756;2023-04-30T04:09:05;148662.41;;;14.26;93.35
7180;BME280;3631;42.152;24.756;2023-04-30T04:12:01;148681.31;;;14.34;93.48
7180;BME280;3631;42.152;24.756;2023-04-30T04:15:04;148696.53;;;14.40;92.99
7180;BME280;3631;42.152;24.756;2023-04-30T04:17:54;148704.09;;;14.43;93.53
7180;BME280;3631;42.152;24.756;2023-04-30T04:20:48;148706.63;;;14.44;93.92
7180;BME280;3631;42.152;24.756;2023-04-30T04:23:47;148681.31;;;14.34;95.99
7180;BME280;3631;42.152;24.756;2023-04-30T04:26:40;148695.25;;;14.39;95.90
7180;BME280;3631;42.152;24.756;2023-04-30T04:29:23;148720.47;;;14.49;95.33
7180;BME280;3631;42.152;24.756;2023-04-30T04:32:10;148705.34;;;14.43;95.09
7180;BME280;3631;42.152;24.756;2023-04-30T04:34:59;148695.25;;;14.39;95.77
7180;BME280;3631;42.152;24.756;2023-04-30T04:37:53;148705.34;;;14.43;94.83
7180;BME280;3631;42.152;24.756;2023-04-30T04:40:55;148705.34;;;14.43;94.27
7180;BME280;3631;42.152;24.756;2023-04-30T04:43:41;148735.63;;;14.56;93.30
7180;BME280;3631;42.152;24.756;2023-04-30T04:46:27;148755.78;;;14.64;92.09
7180;BME280;3631;42.152;24.756;2023-04-30T04:49:05;148827.69;;;14.93;90.84
7180;BME280;3631;42.152;24.756;2023-04-30T04:51:39;149052.38;;;15.83;84.54
7180;BME280;3631;42.152;24.756;2023-04-30T04:54:16;149229.16;;;16.54;78.50
7180;BME280;3631;42.152;24.756;2023-04-30T04:56:57;149341.66;;;16.99;75.25
7180;BME280;3631;42.152;24.756;2023-04-30T04:59:50;149475.59;;;17.53;70.44
7180;BME280;3631;42.152;24.756;2023-04-30T05:02:32;149536.34;;;17.77;68.40
7180;BME280;3631;42.152;24.756;2023-04-30T05:05:10;149566.69;;;17.89;67.07
7180;BME280;3631;42.152;24.756;2023-04-30T05:07:54;149895.59;;;19.21;61.91
7180;BME280;3631;42.152;24.756;2023-04-30T05:10:39;150236.28;;;20.57;55.16
7180;BME280;3631;42.152;24.756;2023-04-30T05:13:47;150664.78;;;22.29;49.09
7180;BME280;3631;42.152;24.756;2023-04-30T05:16:55;151178.91;;;24.34;43.96
7180;BME280;3631;42.152;24.756;2023-04-30T05:19:52;151703.88;;;26.44;38.57
7180;BME280;3631;42.152;24.756;2023-04-30T05:22:39;152036.03;;;27.76;35.71
7180;BME280;3631;42.152;24.756;2023-04-30T05:25:29;152379.84;;;29.13;33.32
7180;BME280;3631;42.152;24.756;2023-04-30T05:28:12;152520.03;;;29.69;31.30
7180;BME280;3631;42.152;24.756;2023-04-30T05:31:12;152520.03;;;29.69;31.00
7180;BME280;3631;42.152;24.756;2023-04-30T05:34:04;152656.47;;;30.23;29.98
7180;BME280;3631;42.152;24.756;2023-04-30T05:37:04;152689.63;;;30.36;30.11
7180;BME280;3631;42.152;24.756;2023-04-30T05:39:52;152852.81;;;31.01;29.39
7180;BME280;3631;42.152;24.756;2023-04-30T05:42:50;153095.25;;;31.97;28.56
7180;BME280;3631;42.152;24.756;2023-04-30T05:45:47;153127.16;;;32.10;28.24
7180;BME280;3631;42.152;24.756;2023-04-30T05:49:07;153219.09;;;32.46;27.89
7180;BME280;3631;42.152;24.756;2023-04-30T05:52:07;153236.94;;;32.54;27.03
7180;BME280;3631;42.152;24.756;2023-04-30T05:54:38;153192.28;;;32.36;27.53
7180;BME280;3631;42.152;24.756;2023-04-30T05:57:20;152961.25;;;31.44;27.53
7180;BME280;3631;42.152;24.756;2023-04-30T05:59:59;152759.75;;;30.64;28.22
7180;BME280;3631;42.152;24.756;2023-04-30T06:02:36;152859.22;;;31.03;27.85
7180;BME280;3631;42.152;24.756;2023-04-30T06:05:08;152755.91;;;30.62;28.90
7180;BME280;3631;42.152;24.756;2023-04-30T06:07:58;152814.56;;;30.86;27.92
7180;BME280;3631;42.152;24.756;2023-04-30T06:10:57;152822.22;;;30.89;28.40
7180;BME280;3631;42.152;24.756;2023-04-30T06:13:34;153087.56;;;31.94;27.18
7180;BME280;3631;42.152;24.756;2023-04-30T06:16:28;153020.00;;;31.67;27.73
7180;BME280;3631;42.152;24.756;2023-04-30T06:19:31;153009.78;;;31.63;27.96
7180;BME280;3631;42.152;24.756;2023-04-30T06:22:51;152891.09;;;31.16;28.32
7180;BME280;3631;42.152;24.756;2023-04-30T06:25:42;152831.16;;;30.92;28.50
7180;BME280;3631;42.152;24.756;2023-04-30T06:28:22;152659.00;;;30.24;29.56
7180;BME280;3631;42.152;24.756;2023-04-30T06:30:59;152752.09;;;30.61;29.49
7180;BME280;3631;42.152;24.756;2023-04-30T06:33:35;152727.81;;;30.51;30.30
7180;BME280;3631;42.152;24.756;2023-04-30T06:36:14;152562.09;;;29.85;31.07
7180;BME280;3631;42.152;24.756;2023-04-30T06:38:52;152514.97;;;29.67;31.52
7180;BME280;3631;42.152;24.756;2023-04-30T06:41:22;152642.41;;;30.17;31.11
7180;BME280;3631;42.152;24.756;2023-04-30T06:43:56;152555.72;;;29.83;31.33
7180;BME280;3631;42.152;24.756;2023-04-30T06:46:39;152474.16;;;29.50;32.03
7180;BME280;3631;42.152;24.756;2023-04-30T06:49:23;152665.34;;;30.26;31.00
7180;BME280;3631;42.152;24.756;2023-04-30T06:52:07;152644.97;;;30.18;31.18
7180;BME280;3631;42.152;24.756;2023-04-30T06:54:58;152680.69;;;30.32;31.07
7180;BME280;3631;42.152;24.756;2023-04-30T06:57:36;152693.38;;;30.38;31.12
7180;BME280;3631;42.152;24.756;2023-04-30T07:00:40;152755.91;;;30.62;31.10
7180;BME280;3631;42.152;24.756;2023-04-30T07:03:45;152676.84;;;30.31;30.99
7180;BME280;3631;42.152;24.756;2023-04-30T07:06:54;152775.03;;;30.70;30.54
7180;BME280;3631;42.152;24.756;2023-04-30T07:10:10;152768.69;;;30.67;30.60
7180;BME280;3631;42.152;24.756;2023-04-30T07:13:04;152655.19;;;30.22;30.35
7180;BME280;3631;42.152;24.756;2023-04-30T07:19:22;152572.31;;;29.89;30.94
7180;BME280;3631;42.152;24.756;2023-04-30T07:22:34;152535.34;;;29.75;30.40
7180;BME280;3631;42.152;24.756;2023-04-30T07:25:34;152775.03;;;30.70;29.70
7180;BME280;3631;42.152;24.756;2023-04-30T07:31:47;153229.31;;;32.51;26.80
7180;BME280;3631;42.152;24.756;2023-04-30T07:34:55;153405.47;;;33.21;26.45
7180;BME280;3631;42.152;24.756;2023-04-30T07:41:26;153327.59;;;32.90;26.51
7180;BME280;3631;42.152;24.756;2023-04-30T07:44:18;153447.69;;;33.37;25.55
7180;BME280;3631;42.152;24.756;2023-04-30T07:47:26;153543.47;;;33.75;25.48
7180;BME280;3631;42.152;24.756;2023-04-30T07:50:45;153496.19;;;33.57;25.42
7180;BME280;3631;42.152;24.756;2023-04-30T07:53:42;153368.47;;;33.06;25.38
7180;BME280;3631;42.152;24.756;2023-04-30T07:56:31;153339.13;;;32.94;25.74
7180;BME280;3631;42.152;24.756;2023-04-30T07:59:15;153436.16;;;33.33;25.18
7180;BME280;3631;42.152;24.756;2023-04-30T08:02:17;153409.31;;;33.22;24.97
7180;BME280;3631;42.152;24.756;2023-04-30T08:05:06;153293.13;;;32.76;26.09
7180;BME280;3631;42.152;24.756;2023-04-30T08:08:08;153345.47;;;32.97;25.50
7180;BME280;3631;42.152;24.756;2023-04-30T08:11:14;153312.31;;;32.84;25.89
7180;BME280;3631;42.152;24.756;2023-04-30T08:14:15;153377.38;;;33.09;25.39
7180;BME280;3631;42.152;24.756;2023-04-30T08:17:08;153210.13;;;32.43;25.54
7180;BME280;3631;42.152;24.756;2023-04-30T08:23:15;153189.72;;;32.35;25.92
7180;BME280;3631;42.152;24.756;2023-04-30T08:26:16;153219.09;;;32.46;25.69
7180;BME280;3631;42.152;24.756;2023-04-30T08:35:15;153176.94;;;32.30;25.37
7180;BME280;3631;42.152;24.756;2023-04-30T08:38:04;153110.59;;;32.03;25.36
7180;BME280;3631;42.152;24.756;2023-04-30T08:41:24;152910.25;;;31.24;26.79
7180;BME280;3631;42.152;24.756;2023-04-30T08:44:22;152800.56;;;30.80;27.39
7180;BME280;3631;42.152;24.756;2023-04-30T08:47:21;152777.56;;;30.71;27.69
7180;BME280;3631;42.152;24.756;2023-04-30T08:50:33;152791.63;;;30.77;26.89
7180;BME280;3631;42.152;24.756;2023-04-30T08:53:31;152724.00;;;30.50;26.64
7180;BME280;3631;42.152;24.756;2023-04-30T09:00:26;152558.25;;;29.84;27.62
7180;BME280;3631;42.152;24.756;2023-04-30T09:03:19;152276.66;;;28.72;27.79
7180;BME280;3631;42.152;24.756;2023-04-30T09:05:55;152229.56;;;28.53;27.95
7180;BME280;3631;42.152;24.756;2023-04-30T09:09:07;152085.66;;;27.96;28.06
7180;BME280;3631;42.152;24.756;2023-04-30T09:12:15;151929.06;;;27.33;29.46
7180;BME280;3631;42.152;24.756;2023-04-30T09:15:37;151934.16;;;27.35;29.61
7180;BME280;3631;42.152;24.756;2023-04-30T09:18:47;151834.94;;;26.96;30.25
7180;BME280;3631;42.152;24.756;2023-04-30T09:21:49;151882.00;;;27.15;30.14
7180;BME280;3631;42.152;24.756;2023-04-30T09:24:56;151939.25;;;27.37;29.16
7180;BME280;3631;42.152;24.756;2023-04-30T09:34:22;151558.88;;;25.86;30.59
7180;BME280;3631;42.152;24.756;2023-04-30T09:37:41;151422.84;;;25.31;31.69
7180;BME280;3631;42.152;24.756;2023-04-30T09:40:39;151328.84;;;24.94;32.23
7180;BME280;3631;42.152;24.756;2023-04-30T09:43:25;151309.72;;;24.86;32.39
7180;BME280;3631;42.152;24.756;2023-04-30T09:46:42;151201.75;;;24.43;32.73
7180;BME280;3631;42.152;24.756;2023-04-30T09:49:39;151197.94;;;24.42;32.91
7180;BME280;3631;42.152;24.756;2023-04-30T09:52:28;151201.75;;;24.43;33.11
7180;BME280;3631;42.152;24.756;2023-04-30T09:55:13;151255.09;;;24.65;33.09
7180;BME280;3631;42.152;24.756;2023-04-30T09:57:52;151246.19;;;24.61;32.94
7180;BME280;3631;42.152;24.756;2023-04-30T10:00:25;151234.78;;;24.56;32.84
7180;BME280;3631;42.152;24.756;2023-04-30T10:02:58;151206.84;;;24.45;32.59
7180;BME280;3631;42.152;24.756;2023-04-30T10:05:39;151218.25;;;24.50;32.31
7180;BME280;3631;42.152;24.756;2023-04-30T10:08:24;151247.47;;;24.61;32.73
7180;BME280;3631;42.152;24.756;2023-04-30T10:11:06;151227.16;;;24.53;33.01
7180;BME280;3631;42.152;24.756;2023-04-30T10:13:56;151234.78;;;24.56;33.12
7180;BME280;3631;42.152;24.756;2023-04-30T10:16:48;151285.59;;;24.77;32.64
7180;BME280;3631;42.152;24.756;2023-04-30T10:19:44;151305.91;;;24.85;32.71
7180;BME280;3631;42.152;24.756;2023-04-30T10:23:07;151271.66;;;24.71;32.97
7180;BME280;3631;42.152;24.756;2023-04-30T10:26:07;151283.03;;;24.76;32.41
7180;BME280;3631;42.152;24.756;2023-04-30T10:29:05;151298.31;;;24.82;33.16
7180;BME280;3631;42.152;24.756;2023-04-30T10:31:51;151261.47;;;24.67;32.53
7180;BME280;3631;42.152;24.756;2023-04-30T10:34:47;151209.41;;;24.46;33.65
7180;BME280;3631;42.152;24.756;2023-04-30T10:37:40;151251.28;;;24.63;33.05
7180;BME280;3631;42.152;24.756;2023-04-30T10:40:28;151250.00;;;24.63;33.42
7180;BME280;3631;42.152;24.756;2023-04-30T10:43:04;151319.91;;;24.90;33.46
7180;BME280;3631;42.152;24.756;2023-04-30T10:45:46;151411.44;;;25.27;32.33
7180;BME280;3631;42.152;24.756;2023-04-30T10:48:22;151419.03;;;25.30;32.46
7180;BME280;3631;42.152;24.756;2023-04-30T10:50:57;151387.25;;;25.17;32.59
7180;BME280;3631;42.152;24.756;2023-04-30T10:53:31;151393.63;;;25.20;32.88
7180;BME280;3631;42.152;24.756;2023-04-30T10:56:10;151339.00;;;24.98;33.37
7180;BME280;3631;42.152;24.756;2023-04-30T10:58:43;151272.91;;;24.72;33.70
7180;BME280;3631;42.152;24.756;2023-04-30T11:01:17;151271.66;;;24.71;34.17
7180;BME280;3631;42.152;24.756;2023-04-30T11:04:06;151264.00;;;24.68;35.18
7180;BME280;3631;42.152;24.756;2023-04-30T11:07:00;151247.47;;;24.61;34.86
7180;BME280;3631;42.152;24.756;2023-04-30T11:09:44;151285.59;;;24.77;34.42
7180;BME280;3631;42.152;24.756;2023-04-30T11:12:24;151260.19;;;24.67;34.75
7180;BME280;3631;42.152;24.756;2023-04-30T11:15:18;151265.28;;;24.69;34.57
7180;BME280;3631;42.152;24.756;2023-04-30T11:17:58;151289.41;;;24.78;34.71
7180;BME280;3631;42.152;24.756;2023-04-30T11:20:40;151170.00;;;24.31;34.76
7180;BME280;3631;42.152;24.756;2023-04-30T11:23:33;151111.53;;;24.07;35.19
7180;BME280;3631;42.152;24.756;2023-04-30T11:26:09;151112.81;;;24.08;35.02
7180;BME280;3631;42.152;24.756;2023-04-30T11:28:50;151116.63;;;24.09;35.24
7180;BME280;3631;42.152;24.756;2023-04-30T11:31:24;151096.34;;;24.01;35.37
7180;BME280;3631;42.152;24.756;2023-04-30T11:34:08;151126.81;;;24.13;34.94
7180;BME280;3631;42.152;24.756;2023-04-30T11:36:54;151135.66;;;24.17;35.05
7180;BME280;3631;42.152;24.756;2023-04-30T11:39:42;151167.47;;;24.30;35.07
7180;BME280;3631;42.152;24.756;2023-04-30T11:42:31;151213.22;;;24.48;34.30
7180;BME280;3631;42.152;24.756;2023-04-30T11:45:44;151206.84;;;24.45;34.13
7180;BME280;3631;42.152;24.756;2023-04-30T11:49:02;151255.09;;;24.65;34.02
7180;BME280;3631;42.152;24.756;2023-04-30T11:51:49;151232.25;;;24.55;33.91
7180;BME280;3631;42.152;24.756;2023-04-30T11:54:29;151204.31;;;24.44;34.04
7180;BME280;3631;42.152;24.756;2023-04-30T11:57:02;151214.47;;;24.48;34.13
7180;BME280;3631;42.152;24.756;2023-04-30T11:59:31;151260.19;;;24.67;33.88
7180;BME280;3631;42.152;24.756;2023-04-30T12:02:19;151302.09;;;24.83;33.55
7180;BME280;3631;42.152;24.756;2023-04-30T12:05:05;151252.56;;;24.64;34.06
7180;BME280;3631;42.152;24.756;2023-04-30T12:07:47;151166.19;;;24.29;34.64
7180;BME280;3631;42.152;24.756;2023-04-30T12:10:22;151117.91;;;24.10;34.69
7180;BME280;3631;42.152;24.756;2023-04-30T12:13:04;151112.81;;;24.08;34.96
7180;BME280;3631;42.152;24.756;2023-04-30T12:15:41;151059.50;;;23.86;35.25
7180;BME280;3631;42.152;24.756;2023-04-30T12:18:16;151039.22;;;23.78;35.28
7180;BME280;3631;42.152;24.756;2023-04-30T12:20:51;151054.41;;;23.84;35.21
7180;BME280;3631;42.152;24.756;2023-04-30T12:23:24;151086.16;;;23.97;35.01
7180;BME280;3631;42.152;24.756;2023-04-30T12:25:52;151086.16;;;23.97;34.85
7180;BME280;3631;42.152;24.756;2023-04-30T12:28:37;151050.59;;;23.83;36.31
7180;BME280;3631;42.152;24.756;2023-04-30T12:31:12;150938.84;;;23.38;42.32
7180;BME280;3631;42.152;24.756;2023-04-30T12:34:03;150813.25;;;22.88;48.21
7180;BME280;3631;42.152;24.756;2023-04-30T12:37:13;150572.16;;;21.92;57.79
7180;BME280;3631;42.152;24.756;2023-04-30T12:39:58;150324.97;;;20.93;62.08
7180;BME280;3631;42.152;24.756;2023-04-30T12:42:38;150221.09;;;20.51;70.09
7180;BME280;3631;42.152;24.756;2023-04-30T12:45:42;150070.34;;;19.91;73.61
7180;BME280;3631;42.152;24.756;2023-04-30T12:48:14;150004.47;;;19.65;81.54
7180;BME280;3631;42.152;24.756;2023-04-30T12:50:57;149905.72;;;19.25;73.15
7180;BME280;3631;42.152;24.756;2023-04-30T12:53:30;149815.88;;;18.89;81.26
7180;BME280;3631;42.152;24.756;2023-04-30T12:56:21;149748.84;;;18.62;78.46
7180;BME280;3631;42.152;24.756;2023-04-30T12:58:56;149732.34;;;18.56;81.05
7180;BME280;3631;42.152;24.756;2023-04-30T13:01:27;149761.47;;;18.67;82.30
7180;BME280;3631;42.152;24.756;2023-04-30T13:04:24;149788.03;;;18.78;87.86
7180;BME280;3631;42.152;24.756;2023-04-30T13:07:13;149789.31;;;18.78;79.63
7180;BME280;3631;42.152;24.756;2023-04-30T13:09:55;149796.91;;;18.81;80.20
7180;BME280;3631;42.152;24.756;2023-04-30T13:12:40;149799.47;;;18.82;80.37
7180;BME280;3631;42.152;24.756;2023-04-30T13:15:11;149755.16;;;18.65;80.09
7180;BME280;3631;42.152;24.756;2023-04-30T13:17:42;149733.59;;;18.56;85.87
7180;BME280;3631;42.152;24.756;2023-04-30T13:20:16;149670.34;;;18.31;100.00
7180;BME280;3631;42.152;24.756;2023-04-30T13:22:56;149584.38;;;17.96;100.00
7180;BME280;3631;42.152;24.756;2023-04-30T13:25:29;149536.34;;;17.77;100.00
7180;BME280;3631;42.152;24.756;2023-04-30T13:28:00;149533.78;;;17.76;100.00
7180;BME280;3631;42.152;24.756;2023-04-30T13:30:32;149518.66;;;17.70;97.55
7180;BME280;3631;42.152;24.756;2023-04-30T13:33:05;149473.06;;;17.52;100.00
7180;BME280;3631;42.152;24.756;2023-04-30T13:35:43;149432.66;;;17.35;100.00
7180;BME280;3631;42.152;24.756;2023-04-30T13:38:52;149361.84;;;17.07;100.00
7180;BME280;3631;42.152;24.756;2023-04-30T13:41:31;149313.84;;;16.88;100.00
7180;BME280;3631;42.152;24.756;2023-04-30T13:44:07;149298.66;;;16.82;100.00
7180;BME280;3631;42.152;24.756;2023-04-30T13:46:49;149299.94;;;16.82;100.00
7180;BME280;3631;42.152;24.756;2023-04-30T13:49:28;149311.31;;;16.87;100.00
7180;BME280;3631;42.152;24.756;2023-04-30T13:52:13;149341.66;;;16.99;100.00
7180;BME280;3631;42.152;24.756;2023-04-30T13:54:54;149364.38;;;17.08;100.00
7180;BME280;3631;42.152;24.756;2023-04-30T13:57:37;149404.84;;;17.24;100.00
7180;BME280;3631;42.152;24.756;2023-04-30T14:00:20;149454.13;;;17.44;100.00
7180;BME280;3631;42.152;24.756;2023-04-30T14:02:59;149503.44;;;17.64;100.00
7180;BME280;3631;42.152;24.756;2023-04-30T14:05:43;149571.75;;;17.91;100.00
7180;BME280;3631;42.152;24.756;2023-04-30T14:08:21;149598.28;;;18.02;98.75
7180;BME280;3631;42.152;24.756;2023-04-30T14:11:01;149640.00;;;18.19;89.92
7180;BME280;3631;42.152;24.756;2023-04-30T14:13:42;149674.16;;;18.32;81.76
7180;BME280;3631;42.152;24.756;2023-04-30T14:16:26;149690.63;;;18.39;87.60
7180;BME280;3631;42.152;24.756;2023-04-30T14:18:57;149701.97;;;18.43;90.30
7180;BME280;3631;42.152;24.756;2023-04-30T14:21:28;149720.94;;;18.51;90.35
7180;BME280;3631;42.152;24.756;2023-04-30T14:24:00;149722.19;;;18.51;98.54
7180;BME280;3631;42.152;24.756;2023-04-30T14:26:52;149722.19;;;18.51;98.91
7180;BME280;3631;42.152;24.756;2023-04-30T14:29:40;149727.28;;;18.54;99.01
7180;BME280;3631;42.152;24.756;2023-04-30T14:32:45;149720.94;;;18.51;99.82
7180;BME280;3631;42.152;24.756;2023-04-30T14:35:43;149698.19;;;18.42;100.00
7180;BME280;3631;42.152;24.756;2023-04-30T14:38:45;149688.09;;;18.38;100.00
7180;BME280;3631;42.152;24.756;2023-04-30T14:41:52;149728.53;;;18.54;100.00
7180;BME280;3631;42.152;24.756;2023-04-30T14:44:50;149758.94;;;18.66;100.00
7180;BME280;3631;42.152;24.756;2023-04-30T14:47:42;149803.25;;;18.84;95.39
7180;BME280;3631;42.152;24.756;2023-04-30T14:50:32;149837.38;;;18.98;95.93
7180;BME280;3631;42.152;24.756;2023-04-30T14:53:26;149839.91;;;18.99;92.15
7180;BME280;3631;42.152;24.756;2023-04-30T14:56:19;149855.13;;;19.05;93.34
7180;BME280;3631;42.152;24.756;2023-04-30T15:02:31;149895.59;;;19.21;90.29
7180;BME280;3631;42.152;24.756;2023-04-30T15:05:23;149898.13;;;19.22;89.03
7180;BME280;3631;42.152;24.756;2023-04-30T15:08:19;149942.44;;;19.40;87.36
7180;BME280;3631;42.152;24.756;2023-04-30T15:11:30;149971.63;;;19.51;84.87
7180;BME280;3631;42.152;24.756;2023-04-30T15:14:29;149865.22;;;19.09;83.52
7180;BME280;3631;42.152;24.756;2023-04-30T15:17:41;149961.41;;;19.47;81.80
7180;BME280;3631;42.152;24.756;2023-04-30T15:20:56;149953.81;;;19.44;81.45
7180;BME280;3631;42.152;24.756;2023-04-30T15:23:58;149961.41;;;19.47;77.08
7180;BME280;3631;42.152;24.756;2023-04-30T15:26:42;149981.72;;;19.55;75.54
7180;BME280;3631;42.152;24.756;2023-04-30T15:29:22;149985.50;;;19.57;74.54
7180;BME280;3631;42.152;24.756;2023-04-30T15:32:09;149964.00;;;19.48;69.74
7180;BME280;3631;42.152;24.756;2023-04-30T15:34:56;149939.91;;;19.39;67.41
7180;BME280;3631;42.152;24.756;2023-04-30T15:37:56;149942.44;;;19.40;66.09
7180;BME280;3631;42.152;24.756;2023-04-30T15:43:47;149958.88;;;19.46;64.48
7180;BME280;3631;42.152;24.756;2023-04-30T15:46:44;149961.41;;;19.47;64.35
7180;BME280;3631;42.152;24.756;2023-04-30T15:49:27;149986.78;;;19.57;64.96
7180;BME280;3631;42.152;24.756;2023-04-30T15:52:15;149996.94;;;19.62;64.38
7180;BME280;3631;42.152;24.756;2023-04-30T15:55:02;149986.78;;;19.57;64.12
7180;BME280;3631;42.152;24.756;2023-04-30T15:57:45;149985.50;;;19.57;62.76
7180;BME280;3631;42.152;24.756;2023-04-30T16:00:38;149981.72;;;19.55;63.21